sensor_id;sensor_type;location;lat;lon;timestamp;P1;durP1;ratioP1;P2;durP2;ratioP2
69081;SDS011;69029;51.986;5.760;2023-04-25T00:01:10;14.00;;;2.75;;
69081;SDS011;69029;51.986;5.760;2023-04-25T00:03:38;12.90;;;2.83;;
69081;SDS011;69029;51.986;5.760;2023-04-25T00:06:04;11.73;;;2.40;;
69081;SDS011;69029;51.986;5.760;2023-04-25T00:08:30;12.45;;;2.83;;
69081;SDS011;69029;51.986;5.760;2023-04-25T00:10:56;9.07;;;2.30;;
69081;SDS011;69029;51.986;5.760;2023-04-25T00:13:22;12.55;;;2.78;;
69081;SDS011;69029;51.986;5.760;2023-04-25T00:15:48;14.48;;;2.47;;
69081;SDS011;69029;51.986;5.760;2023-04-25T00:18:14;14.40;;;2.42;;
69081;SDS011;69029;51.986;5.760;2023-04-25T00:20:40;18.75;;;3.28;;
69081;SDS011;69029;51.986;5.760;2023-04-25T00:23:09;11.02;;;2.50;;
69081;SDS011;69029;51.986;5.760;2023-04-25T00:25:35;10.90;;;2.65;;
69081;SDS011;69029;51.986;5.760;2023-04-25T00:28:00;15.07;;;2.85;;
69081;SDS011;69029;51.986;5.760;2023-04-25T00:30:26;15.00;;;3.10;;
69081;SDS011;69029;51.986;5.760;2023-04-25T00:32:51;16.10;;;2.95;;
69081;SDS011;69029;51.986;5.760;2023-04-25T00:35:18;11.73;;;2.85;;
69081;SDS011;69029;51.986;5.760;2023-04-25T00:37:43;16.65;;;3.03;;
69081;SDS011;69029;51.986;5.760;2023-04-25T00:40:09;16.52;;;3.05;;
69081;SDS011;69029;51.986;5.760;2023-04-25T00:42:35;13.73;;;2.78;;
69081;SDS011;69029;51.986;5.760;2023-04-25T00:45:03;11.68;;;3.05;;
69081;SDS011;69029;51.986;5.760;2023-04-25T00:47:30;17.23;;;3.03;;
69081;SDS011;69029;51.986;5.760;2023-04-25T00:49:57;10.60;;;2.75;;
69081;SDS011;69029;51.986;5.760;2023-04-25T00:52:23;22.13;;;4.50;;
69081;SDS011;69029;51.986;5.760;2023-04-25T00:54:51;16.88;;;3.00;;
69081;SDS011;69029;51.986;5.760;2023-04-25T00:57:17;13.05;;;3.08;;
69081;SDS011;69029;51.986;5.760;2023-04-25T00:59:43;13.00;;;2.83;;
69081;SDS011;69029;51.986;5.760;2023-04-25T01:02:11;9.50;;;2.80;;
69081;SDS011;69029;51.986;5.760;2023-04-25T01:04:37;16.33;;;3.17;;
69081;SDS011;69029;51.986;5.760;2023-04-25T01:07:04;11.82;;;2.85;;
69081;SDS011;69029;51.986;5.760;2023-04-25T01:09:30;10.27;;;2.70;;
69081;SDS011;69029;51.986;5.760;2023-04-25T01:11:56;15.30;;;3.03;;
69081;SDS011;69029;51.986;5.760;2023-04-25T01:14:22;15.98;;;3.20;;
69081;SDS011;69029;51.986;5.760;2023-04-25T01:16:48;9.00;;;2.65;;
69081;SDS011;69029;51.986;5.760;2023-04-25T01:19:16;16.95;;;3.30;;
69081;SDS011;69029;51.986;5.760;2023-04-25T01:21:43;11.73;;;2.88;;
69081;SDS011;69029;51.986;5.760;2023-04-25T01:24:09;10.75;;;3.10;;
69081;SDS011;69029;51.986;5.760;2023-04-25T01:26:35;19.42;;;3.60;;
69081;SDS011;69029;51.986;5.760;2023-04-25T01:29:01;19.20;;;3.20;;
69081;SDS011;69029;51.986;5.760;2023-04-25T01:31:28;12.63;;;3.53;;
69081;SDS011;69029;51.986;5.760;2023-04-25T01:33:55;12.10;;;2.97;;
69081;SDS011;69029;51.986;5.760;2023-04-25T01:36:21;19.30;;;3.00;;
69081;SDS011;69029;51.986;5.760;2023-04-25T01:38:47;17.13;;;3.38;;
69081;SDS011;69029;51.986;5.760;2023-04-25T01:41:13;15.02;;;3.10;;
69081;SDS011;69029;51.986;5.760;2023-04-25T01:43:40;23.90;;;3.78;;
69081;SDS011;69029;51.986;5.760;2023-04-25T01:46:05;23.42;;;3.60;;
69081;SDS011;69029;51.986;5.760;2023-04-25T01:48:31;17.20;;;3.05;;
69081;SDS011;69029;51.986;5.760;2023-04-25T01:50:57;16.25;;;3.28;;
69081;SDS011;69029;51.986;5.760;2023-04-25T01:53:23;18.55;;;3.30;;
69081;SDS011;69029;51.986;5.760;2023-04-25T01:55:49;13.60;;;3.38;;
69081;SDS011;69029;51.986;5.760;2023-04-25T01:58:15;13.40;;;3.00;;
69081;SDS011;69029;51.986;5.760;2023-04-25T02:00:40;16.50;;;3.00;;
69081;SDS011;69029;51.986;5.760;2023-04-25T02:03:06;16.77;;;3.47;;
69081;SDS011;69029;51.986;5.760;2023-04-25T02:05:36;18.75;;;2.85;;
69081;SDS011;69029;51.986;5.760;2023-04-25T02:08:04;14.43;;;3.30;;
69081;SDS011;69029;51.986;5.760;2023-04-25T02:10:30;14.93;;;2.92;;
69081;SDS011;69029;51.986;5.760;2023-04-25T02:12:57;12.60;;;2.58;;
69081;SDS011;69029;51.986;5.760;2023-04-25T02:15:22;17.88;;;3.10;;
69081;SDS011;69029;51.986;5.760;2023-04-25T02:17:48;18.30;;;3.53;;
69081;SDS011;69029;51.986;5.760;2023-04-25T02:20:14;11.52;;;2.90;;
69081;SDS011;69029;51.986;5.760;2023-04-25T02:22:41;18.67;;;2.85;;
69081;SDS011;69029;51.986;5.760;2023-04-25T02:25:07;17.00;;;3.10;;
69081;SDS011;69029;51.986;5.760;2023-04-25T02:27:34;13.88;;;2.95;;
69081;SDS011;69029;51.986;5.760;2023-04-25T02:29:59;13.85;;;3.13;;
69081;SDS011;69029;51.986;5.760;2023-04-25T02:32:25;16.92;;;3.22;;
69081;SDS011;69029;51.986;5.760;2023-04-25T02:34:51;14.55;;;3.03;;
69081;SDS011;69029;51.986;5.760;2023-04-25T02:37:17;15.85;;;2.78;;
69081;SDS011;69029;51.986;5.760;2023-04-25T02:39:43;14.00;;;3.10;;
69081;SDS011;69029;51.986;5.760;2023-04-25T02:42:09;22.85;;;3.13;;
69081;SDS011;69029;51.986;5.760;2023-04-25T02:44:38;13.13;;;2.72;;
69081;SDS011;69029;51.986;5.760;2023-04-25T02:47:03;16.05;;;2.78;;
69081;SDS011;69029;51.986;5.760;2023-04-25T02:49:29;15.90;;;2.83;;
69081;SDS011;69029;51.986;5.760;2023-04-25T02:51:54;14.00;;;2.65;;
69081;SDS011;69029;51.986;5.760;2023-04-25T02:54:20;12.63;;;3.13;;
69081;SDS011;69029;51.986;5.760;2023-04-25T02:56:46;9.77;;;2.92;;
69081;SDS011;69029;51.986;5.760;2023-04-25T02:59:11;21.02;;;4.50;;
69081;SDS011;69029;51.986;5.760;2023-04-25T03:01:37;19.10;;;3.60;;
69081;SDS011;69029;51.986;5.760;2023-04-25T03:04:02;13.32;;;2.63;;
69081;SDS011;69029;51.986;5.760;2023-04-25T03:06:28;11.75;;;2.80;;
69081;SDS011;69029;51.986;5.760;2023-04-25T03:08:54;10.88;;;2.88;;
69081;SDS011;69029;51.986;5.760;2023-04-25T03:11:19;13.30;;;2.78;;
69081;SDS011;69029;51.986;5.760;2023-04-25T03:13:45;10.45;;;2.90;;
69081;SDS011;69029;51.986;5.760;2023-04-25T03:16:11;15.85;;;2.75;;
69081;SDS011;69029;51.986;5.760;2023-04-25T03:18:36;19.25;;;4.13;;
69081;SDS011;69029;51.986;5.760;2023-04-25T03:21:02;10.05;;;3.17;;
69081;SDS011;69029;51.986;5.760;2023-04-25T03:23:28;13.93;;;3.25;;
69081;SDS011;69029;51.986;5.760;2023-04-25T03:25:53;14.15;;;2.95;;
69081;SDS011;69029;51.986;5.760;2023-04-25T03:28:19;15.88;;;3.15;;
69081;SDS011;69029;51.986;5.760;2023-04-25T03:30:45;14.40;;;3.50;;
69081;SDS011;69029;51.986;5.760;2023-04-25T03:33:10;19.13;;;3.40;;
69081;SDS011;69029;51.986;5.760;2023-04-25T03:35:36;19.15;;;3.30;;
69081;SDS011;69029;51.986;5.760;2023-04-25T03:38:01;12.02;;;3.00;;
69081;SDS011;69029;51.986;5.760;2023-04-25T03:40:27;10.77;;;2.78;;
69081;SDS011;69029;51.986;5.760;2023-04-25T03:42:53;21.05;;;3.17;;
69081;SDS011;69029;51.986;5.760;2023-04-25T03:45:18;13.23;;;2.83;;
69081;SDS011;69029;51.986;5.760;2023-04-25T03:47:44;13.02;;;2.70;;
69081;SDS011;69029;51.986;5.760;2023-04-25T03:50:10;9.30;;;2.40;;
69081;SDS011;69029;51.986;5.760;2023-04-25T03:52:35;8.15;;;2.55;;
69081;SDS011;69029;51.986;5.760;2023-04-25T03:55:01;15.02;;;3.20;;
69081;SDS011;69029;51.986;5.760;2023-04-25T03:57:27;14.68;;;2.92;;
69081;SDS011;69029;51.986;5.760;2023-04-25T03:59:52;16.50;;;3.20;;
69081;SDS011;69029;51.986;5.760;2023-04-25T04:02:18;18.23;;;2.65;;
69081;SDS011;69029;51.986;5.760;2023-04-25T04:04:43;9.95;;;2.60;;
69081;SDS011;69029;51.986;5.760;2023-04-25T04:07:09;14.55;;;3.03;;
69081;SDS011;69029;51.986;5.760;2023-04-25T04:09:35;12.98;;;3.05;;
69081;SDS011;69029;51.986;5.760;2023-04-25T04:12:01;11.15;;;2.67;;
69081;SDS011;69029;51.986;5.760;2023-04-25T04:14:27;18.65;;;3.38;;
69081;SDS011;69029;51.986;5.760;2023-04-25T04:16:53;19.90;;;3.30;;
69081;SDS011;69029;51.986;5.760;2023-04-25T04:19:19;18.27;;;3.72;;
69081;SDS011;69029;51.986;5.760;2023-04-25T04:21:45;19.98;;;3.38;;
69081;SDS011;69029;51.986;5.760;2023-04-25T04:24:10;11.77;;;3.08;;
69081;SDS011;69029;51.986;5.760;2023-04-25T04:26:36;10.60;;;3.00;;
69081;SDS011;69029;51.986;5.760;2023-04-25T04:29:03;16.58;;;3.08;;
69081;SDS011;69029;51.986;5.760;2023-04-25T04:31:29;9.77;;;2.53;;
69081;SDS011;69029;51.986;5.760;2023-04-25T04:33:55;13.48;;;3.75;;
69081;SDS011;69029;51.986;5.760;2023-04-25T04:36:20;15.23;;;3.00;;
69081;SDS011;69029;51.986;5.760;2023-04-25T04:38:48;11.20;;;3.08;;
69081;SDS011;69029;51.986;5.760;2023-04-25T04:41:13;12.25;;;3.10;;
69081;SDS011;69029;51.986;5.760;2023-04-25T04:43:39;19.50;;;5.50;;
69081;SDS011;69029;51.986;5.760;2023-04-25T04:46:05;53.38;;;15.52;;
69081;SDS011;69029;51.986;5.760;2023-04-25T04:48:33;70.88;;;30.25;;
69081;SDS011;69029;51.986;5.760;2023-04-25T04:50:59;61.53;;;28.58;;
69081;SDS011;69029;51.986;5.760;2023-04-25T04:53:25;29.70;;;14.30;;
69081;SDS011;69029;51.986;5.760;2023-04-25T04:55:51;82.53;;;33.97;;
69081;SDS011;69029;51.986;5.760;2023-04-25T04:58:16;30.35;;;11.95;;
69081;SDS011;69029;51.986;5.760;2023-04-25T05:00:42;36.25;;;15.50;;
69081;SDS011;69029;51.986;5.760;2023-04-25T05:03:08;21.27;;;8.10;;
69081;SDS011;69029;51.986;5.760;2023-04-25T05:05:33;20.05;;;8.77;;
69081;SDS011;69029;51.986;5.760;2023-04-25T05:07:59;13.98;;;3.65;;
69081;SDS011;69029;51.986;5.760;2023-04-25T05:10:25;9.55;;;3.55;;
69081;SDS011;69029;51.986;5.760;2023-04-25T05:12:50;15.95;;;3.58;;
69081;SDS011;69029;51.986;5.760;2023-04-25T05:15:16;11.68;;;2.58;;
69081;SDS011;69029;51.986;5.760;2023-04-25T05:17:42;12.32;;;2.70;;
69081;SDS011;69029;51.986;5.760;2023-04-25T05:20:07;10.98;;;2.78;;
69081;SDS011;69029;51.986;5.760;2023-04-25T05:22:36;17.90;;;5.15;;
69081;SDS011;69029;51.986;5.760;2023-04-25T05:25:02;11.40;;;2.60;;
69081;SDS011;69029;51.986;5.760;2023-04-25T05:27:28;12.68;;;2.95;;
69081;SDS011;69029;51.986;5.760;2023-04-25T05:29:54;11.30;;;2.85;;
69081;SDS011;69029;51.986;5.760;2023-04-25T05:32:19;16.02;;;2.50;;
69081;SDS011;69029;51.986;5.760;2023-04-25T05:34:45;13.45;;;2.50;;
69081;SDS011;69029;51.986;5.760;2023-04-25T05:37:11;12.13;;;2.72;;
69081;SDS011;69029;51.986;5.760;2023-04-25T05:39:36;8.95;;;2.55;;
69081;SDS011;69029;51.986;5.760;2023-04-25T05:42:02;16.40;;;3.20;;
69081;SDS011;69029;51.986;5.760;2023-04-25T05:44:28;13.90;;;2.60;;
69081;SDS011;69029;51.986;5.760;2023-04-25T05:46:54;9.63;;;2.58;;
69081;SDS011;69029;51.986;5.760;2023-04-25T05:49:20;9.23;;;2.40;;
69081;SDS011;69029;51.986;5.760;2023-04-25T05:51:46;8.50;;;2.00;;
69081;SDS011;69029;51.986;5.760;2023-04-25T05:54:11;11.80;;;2.40;;
69081;SDS011;69029;51.986;5.760;2023-04-25T05:56:37;9.35;;;2.22;;
69081;SDS011;69029;51.986;5.760;2023-04-25T05:59:02;10.70;;;1.98;;
69081;SDS011;69029;51.986;5.760;2023-04-25T06:01:28;7.97;;;1.88;;
69081;SDS011;69029;51.986;5.760;2023-04-25T06:03:53;16.73;;;7.70;;
69081;SDS011;69029;51.986;5.760;2023-04-25T06:06:19;13.25;;;6.45;;
69081;SDS011;69029;51.986;5.760;2023-04-25T06:08:45;17.98;;;7.30;;
69081;SDS011;69029;51.986;5.760;2023-04-25T06:11:11;13.70;;;4.10;;
69081;SDS011;69029;51.986;5.760;2023-04-25T06:13:36;11.88;;;3.95;;
69081;SDS011;69029;51.986;5.760;2023-04-25T06:16:02;12.57;;;2.63;;
69081;SDS011;69029;51.986;5.760;2023-04-25T06:18:28;12.93;;;2.78;;
69081;SDS011;69029;51.986;5.760;2023-04-25T06:20:53;13.27;;;5.03;;
69081;SDS011;69029;51.986;5.760;2023-04-25T06:23:19;13.93;;;3.30;;
69081;SDS011;69029;51.986;5.760;2023-04-25T06:25:44;14.00;;;2.55;;
69081;SDS011;69029;51.986;5.760;2023-04-25T06:28:10;6.97;;;2.00;;
69081;SDS011;69029;51.986;5.760;2023-04-25T06:30:36;10.73;;;2.03;;
69081;SDS011;69029;51.986;5.760;2023-04-25T06:33:01;10.80;;;2.00;;
69081;SDS011;69029;51.986;5.760;2023-04-25T06:35:27;12.90;;;3.45;;
69081;SDS011;69029;51.986;5.760;2023-04-25T06:37:52;11.30;;;4.35;;
69081;SDS011;69029;51.986;5.760;2023-04-25T06:40:18;11.88;;;3.35;;
69081;SDS011;69029;51.986;5.760;2023-04-25T06:42:44;7.70;;;2.20;;
69081;SDS011;69029;51.986;5.760;2023-04-25T06:45:09;9.70;;;1.80;;
69081;SDS011;69029;51.986;5.760;2023-04-25T06:47:35;11.02;;;2.50;;
69081;SDS011;69029;51.986;5.760;2023-04-25T06:50:01;11.20;;;2.20;;
69081;SDS011;69029;51.986;5.760;2023-04-25T06:52:27;6.93;;;1.98;;
69081;SDS011;69029;51.986;5.760;2023-04-25T06:54:52;12.10;;;2.10;;
69081;SDS011;69029;51.986;5.760;2023-04-25T06:57:18;8.68;;;1.60;;
69081;SDS011;69029;51.986;5.760;2023-04-25T06:59:43;9.80;;;1.95;;
69081;SDS011;69029;51.986;5.760;2023-04-25T07:02:09;9.63;;;2.20;;
69081;SDS011;69029;51.986;5.760;2023-04-25T07:04:35;16.17;;;1.90;;
69081;SDS011;69029;51.986;5.760;2023-04-25T07:07:00;20.08;;;10.30;;
69081;SDS011;69029;51.986;5.760;2023-04-25T07:09:27;10.65;;;1.85;;
69081;SDS011;69029;51.986;5.760;2023-04-25T07:11:53;9.85;;;1.88;;
69081;SDS011;69029;51.986;5.760;2023-04-25T07:14:19;16.63;;;6.30;;
69081;SDS011;69029;51.986;5.760;2023-04-25T07:16:45;7.63;;;2.20;;
69081;SDS011;69029;51.986;5.760;2023-04-25T07:19:10;6.25;;;1.80;;
69081;SDS011;69029;51.986;5.760;2023-04-25T07:21:36;15.80;;;2.33;;
69081;SDS011;69029;51.986;5.760;2023-04-25T07:24:01;10.20;;;1.30;;
69081;SDS011;69029;51.986;5.760;2023-04-25T07:26:27;8.68;;;1.60;;
69081;SDS011;69029;51.986;5.760;2023-04-25T07:28:53;14.93;;;2.05;;
69081;SDS011;69029;51.986;5.760;2023-04-25T07:31:19;9.82;;;1.88;;
69081;SDS011;69029;51.986;5.760;2023-04-25T07:33:46;13.93;;;1.73;;
69081;SDS011;69029;51.986;5.760;2023-04-25T07:36:12;8.85;;;1.48;;
69081;SDS011;69029;51.986;5.760;2023-04-25T07:38:38;9.13;;;1.88;;
69081;SDS011;69029;51.986;5.760;2023-04-25T07:41:04;8.75;;;1.52;;
69081;SDS011;69029;51.986;5.760;2023-04-25T07:43:29;8.02;;;1.60;;
69081;SDS011;69029;51.986;5.760;2023-04-25T07:45:55;11.05;;;1.85;;
69081;SDS011;69029;51.986;5.760;2023-04-25T07:48:22;10.90;;;2.28;;
69081;SDS011;69029;51.986;5.760;2023-04-25T07:50:48;7.25;;;1.88;;
69081;SDS011;69029;51.986;5.760;2023-04-25T07:53:14;14.60;;;1.80;;
69081;SDS011;69029;51.986;5.760;2023-04-25T07:55:40;10.10;;;1.80;;
69081;SDS011;69029;51.986;5.760;2023-04-25T07:58:06;6.05;;;1.90;;
69081;SDS011;69029;51.986;5.760;2023-04-25T08:00:32;11.90;;;2.45;;
69081;SDS011;69029;51.986;5.760;2023-04-25T08:02:57;8.60;;;2.17;;
69081;SDS011;69029;51.986;5.760;2023-04-25T08:05:23;8.93;;;2.33;;
69081;SDS011;69029;51.986;5.760;2023-04-25T08:07:48;12.82;;;2.08;;
69081;SDS011;69029;51.986;5.760;2023-04-25T08:10:15;8.50;;;1.60;;
69081;SDS011;69029;51.986;5.760;2023-04-25T08:12:40;7.22;;;1.60;;
69081;SDS011;69029;51.986;5.760;2023-04-25T08:15:06;12.55;;;2.10;;
69081;SDS011;69029;51.986;5.760;2023-04-25T08:17:32;15.10;;;1.83;;
69081;SDS011;69029;51.986;5.760;2023-04-25T08:19:58;9.60;;;1.45;;
69081;SDS011;69029;51.986;5.760;2023-04-25T08:22:23;9.23;;;1.63;;
69081;SDS011;69029;51.986;5.760;2023-04-25T08:24:49;10.23;;;1.58;;
69081;SDS011;69029;51.986;5.760;2023-04-25T08:27:14;6.43;;;1.50;;
69081;SDS011;69029;51.986;5.760;2023-04-25T08:29:41;9.43;;;1.40;;
69081;SDS011;69029;51.986;5.760;2023-04-25T08:32:06;6.15;;;1.30;;
69081;SDS011;69029;51.986;5.760;2023-04-25T08:34:32;7.07;;;1.42;;
69081;SDS011;69029;51.986;5.760;2023-04-25T08:36:58;7.43;;;1.17;;
69081;SDS011;69029;51.986;5.760;2023-04-25T08:39:23;10.80;;;1.38;;
69081;SDS011;69029;51.986;5.760;2023-04-25T08:41:49;5.50;;;1.10;;
69081;SDS011;69029;51.986;5.760;2023-04-25T08:44:15;8.10;;;1.20;;
69081;SDS011;69029;51.986;5.760;2023-04-25T08:46:41;12.38;;;1.58;;
69081;SDS011;69029;51.986;5.760;2023-04-25T08:49:11;5.05;;;1.30;;
69081;SDS011;69029;51.986;5.760;2023-04-25T08:51:41;4.05;;;1.05;;
69081;SDS011;69029;51.986;5.760;2023-04-25T08:54:12;7.72;;;1.30;;
69081;SDS011;69029;51.986;5.760;2023-04-25T08:56:47;7.63;;;1.95;;
69081;SDS011;69029;51.986;5.760;2023-04-25T08:59:14;7.47;;;1.42;;
69081;SDS011;69029;51.986;5.760;2023-04-25T09:01:40;8.95;;;1.20;;
69081;SDS011;69029;51.986;5.760;2023-04-25T09:04:05;7.22;;;1.77;;
69081;SDS011;69029;51.986;5.760;2023-04-25T09:06:31;7.65;;;1.40;;
69081;SDS011;69029;51.986;5.760;2023-04-25T09:09:03;7.50;;;1.60;;
69081;SDS011;69029;51.986;5.760;2023-04-25T09:11:31;3.88;;;1.00;;
69081;SDS011;69029;51.986;5.760;2023-04-25T09:19:24;3.88;;;1.10;;
69081;SDS011;69029;51.986;5.760;2023-04-25T09:21:54;5.45;;;1.30;;
69081;SDS011;69029;51.986;5.760;2023-04-25T09:24:41;4.30;;;1.10;;
69081;SDS011;69029;51.986;5.760;2023-04-25T09:27:12;5.10;;;0.80;;
69081;SDS011;69029;51.986;5.760;2023-04-25T09:29:42;7.93;;;1.00;;
69081;SDS011;69029;51.986;5.760;2023-04-25T09:34:41;7.97;;;1.17;;
69081;SDS011;69029;51.986;5.760;2023-04-25T09:37:11;3.85;;;0.90;;
69081;SDS011;69029;51.986;5.760;2023-04-25T09:39:37;6.90;;;0.98;;
69081;SDS011;69029;51.986;5.760;2023-04-25T09:42:04;6.97;;;1.38;;
69081;SDS011;69029;51.986;5.760;2023-04-25T09:44:30;5.13;;;1.20;;
69081;SDS011;69029;51.986;5.760;2023-04-25T09:46:56;10.43;;;1.33;;
69081;SDS011;69029;51.986;5.760;2023-04-25T09:49:22;6.15;;;1.27;;
69081;SDS011;69029;51.986;5.760;2023-04-25T09:51:57;4.60;;;1.02;;
69081;SDS011;69029;51.986;5.760;2023-04-25T09:54:24;5.13;;;1.20;;
69081;SDS011;69029;51.986;5.760;2023-04-25T09:56:51;3.60;;;1.10;;
69081;SDS011;69029;51.986;5.760;2023-04-25T09:59:21;4.40;;;1.00;;
69081;SDS011;69029;51.986;5.760;2023-04-25T10:01:50;10.05;;;1.70;;
69081;SDS011;69029;51.986;5.760;2023-04-25T10:04:22;11.10;;;1.15;;
69081;SDS011;69029;51.986;5.760;2023-04-25T10:06:51;6.28;;;1.83;;
69081;SDS011;69029;51.986;5.760;2023-04-25T10:09:20;6.53;;;1.20;;
69081;SDS011;69029;51.986;5.760;2023-04-25T10:11:48;3.78;;;0.90;;
69081;SDS011;69029;51.986;5.760;2023-04-25T10:14:15;4.75;;;1.05;;
69081;SDS011;69029;51.986;5.760;2023-04-25T10:16:41;4.70;;;1.35;;
69081;SDS011;69029;51.986;5.760;2023-04-25T10:19:08;6.10;;;0.90;;
69081;SDS011;69029;51.986;5.760;2023-04-25T10:21:34;7.32;;;1.25;;
69081;SDS011;69029;51.986;5.760;2023-04-25T10:24:09;3.83;;;0.88;;
69081;SDS011;69029;51.986;5.760;2023-04-25T10:26:35;5.57;;;1.10;;
69081;SDS011;69029;51.986;5.760;2023-04-25T10:29:01;5.25;;;1.02;;
69081;SDS011;69029;51.986;5.760;2023-04-25T10:31:31;8.10;;;1.10;;
69081;SDS011;69029;51.986;5.760;2023-04-25T10:34:03;6.72;;;1.00;;
69081;SDS011;69029;51.986;5.760;2023-04-25T10:36:33;6.05;;;1.13;;
69081;SDS011;69029;51.986;5.760;2023-04-25T10:39:02;6.22;;;1.17;;
69081;SDS011;69029;51.986;5.760;2023-04-25T10:41:45;13.13;;;1.58;;
69081;SDS011;69029;51.986;5.760;2023-04-25T10:44:26;4.10;;;1.02;;
69081;SDS011;69029;51.986;5.760;2023-04-25T10:46:54;5.75;;;1.00;;
69081;SDS011;69029;51.986;5.760;2023-04-25T10:49:31;11.30;;;1.25;;
69081;SDS011;69029;51.986;5.760;2023-04-25T10:52:43;3.55;;;1.00;;
69081;SDS011;69029;51.986;5.760;2023-04-25T10:54:53;5.55;;;0.75;;
69081;SDS011;69029;51.986;5.760;2023-04-25T10:57:29;3.85;;;0.90;;
69081;SDS011;69029;51.986;5.760;2023-04-25T11:00:19;9.68;;;0.90;;
69081;SDS011;69029;51.986;5.760;2023-04-25T11:03:07;4.57;;;1.00;;
69081;SDS011;69029;51.986;5.760;2023-04-25T11:05:33;4.57;;;0.95;;
69081;SDS011;69029;51.986;5.760;2023-04-25T11:08:01;4.28;;;1.20;;
69081;SDS011;69029;51.986;5.760;2023-04-25T11:10:28;3.95;;;1.00;;
69081;SDS011;69029;51.986;5.760;2023-04-25T11:12:55;1.30;;;0.73;;
69081;SDS011;69029;51.986;5.760;2023-04-25T11:15:21;3.95;;;1.23;;
69081;SDS011;69029;51.986;5.760;2023-04-25T11:17:47;4.47;;;0.90;;
69081;SDS011;69029;51.986;5.760;2023-04-25T11:20:13;8.05;;;1.48;;
69081;SDS011;69029;51.986;5.760;2023-04-25T11:22:40;3.33;;;0.60;;
69081;SDS011;69029;51.986;5.760;2023-04-25T11:25:07;2.70;;;0.90;;
69081;SDS011;69029;51.986;5.760;2023-04-25T11:27:34;3.47;;;0.80;;
69081;SDS011;69029;51.986;5.760;2023-04-25T11:30:10;3.95;;;0.73;;
69081;SDS011;69029;51.986;5.760;2023-04-25T11:32:40;3.95;;;0.80;;
69081;SDS011;69029;51.986;5.760;2023-04-25T11:35:07;5.97;;;0.73;;
69081;SDS011;69029;51.986;5.760;2023-04-25T11:37:33;4.72;;;0.88;;
69081;SDS011;69029;51.986;5.760;2023-04-25T11:39:59;3.35;;;0.80;;
69081;SDS011;69029;51.986;5.760;2023-04-25T11:42:25;3.35;;;0.98;;
69081;SDS011;69029;51.986;5.760;2023-04-25T11:44:51;5.38;;;1.00;;
69081;SDS011;69029;51.986;5.760;2023-04-25T11:47:17;3.92;;;0.93;;
69081;SDS011;69029;51.986;5.760;2023-04-25T11:49:42;3.30;;;0.80;;
69081;SDS011;69029;51.986;5.760;2023-04-25T11:52:08;3.25;;;0.88;;
69081;SDS011;69029;51.986;5.760;2023-04-25T11:54:37;3.08;;;0.90;;
69081;SDS011;69029;51.986;5.760;2023-04-25T11:57:03;2.97;;;0.75;;
69081;SDS011;69029;51.986;5.760;2023-04-25T11:59:29;4.07;;;1.20;;
69081;SDS011;69029;51.986;5.760;2023-04-25T12:01:55;11.48;;;1.63;;
69081;SDS011;69029;51.986;5.760;2023-04-25T12:04:23;4.07;;;1.00;;
69081;SDS011;69029;51.986;5.760;2023-04-25T12:06:50;5.70;;;1.17;;
69081;SDS011;69029;51.986;5.760;2023-04-25T12:09:18;4.32;;;1.20;;
69081;SDS011;69029;51.986;5.760;2023-04-25T12:11:53;5.15;;;0.95;;
69081;SDS011;69029;51.986;5.760;2023-04-25T12:14:21;5.43;;;1.42;;
69081;SDS011;69029;51.986;5.760;2023-04-25T12:16:49;7.25;;;1.10;;
69081;SDS011;69029;51.986;5.760;2023-04-25T12:19:17;6.95;;;1.15;;
69081;SDS011;69029;51.986;5.760;2023-04-25T12:21:43;2.90;;;0.80;;
69081;SDS011;69029;51.986;5.760;2023-04-25T12:24:27;6.63;;;0.90;;
69081;SDS011;69029;51.986;5.760;2023-04-25T12:27:03;4.07;;;1.08;;
69081;SDS011;69029;51.986;5.760;2023-04-25T12:29:33;4.07;;;0.90;;
69081;SDS011;69029;51.986;5.760;2023-04-25T12:31:59;7.22;;;1.08;;
69081;SDS011;69029;51.986;5.760;2023-04-25T12:34:26;5.32;;;1.30;;
69081;SDS011;69029;51.986;5.760;2023-04-25T12:36:52;5.85;;;1.13;;
69081;SDS011;69029;51.986;5.760;2023-04-25T12:39:20;4.45;;;1.00;;
69081;SDS011;69029;51.986;5.760;2023-04-25T12:41:50;3.15;;;0.90;;
69081;SDS011;69029;51.986;5.760;2023-04-25T12:44:19;6.30;;;1.17;;
69081;SDS011;69029;51.986;5.760;2023-04-25T12:46:46;4.28;;;1.10;;
69081;SDS011;69029;51.986;5.760;2023-04-25T12:49:12;3.42;;;0.93;;
69081;SDS011;69029;51.986;5.760;2023-04-25T12:51:38;7.07;;;0.93;;
69081;SDS011;69029;51.986;5.760;2023-04-25T12:54:04;4.22;;;0.90;;
69081;SDS011;69029;51.986;5.760;2023-04-25T12:56:33;5.13;;;1.30;;
69081;SDS011;69029;51.986;5.760;2023-04-25T12:59:00;4.00;;;1.10;;
69081;SDS011;69029;51.986;5.760;2023-04-25T13:01:25;4.20;;;1.17;;
69081;SDS011;69029;51.986;5.760;2023-04-25T13:03:51;5.43;;;0.98;;
69081;SDS011;69029;51.986;5.760;2023-04-25T13:06:17;8.68;;;1.20;;
69081;SDS011;69029;51.986;5.760;2023-04-25T13:08:44;2.45;;;0.75;;
69081;SDS011;69029;51.986;5.760;2023-04-25T13:11:10;3.40;;;0.90;;
69081;SDS011;69029;51.986;5.760;2023-04-25T13:13:36;3.25;;;1.05;;
69081;SDS011;69029;51.986;5.760;2023-04-25T13:16:02;3.70;;;0.88;;
69081;SDS011;69029;51.986;5.760;2023-04-25T13:18:29;6.25;;;1.23;;
69081;SDS011;69029;51.986;5.760;2023-04-25T13:20:56;3.72;;;1.20;;
69081;SDS011;69029;51.986;5.760;2023-04-25T13:23:22;4.30;;;1.13;;
69081;SDS011;69029;51.986;5.760;2023-04-25T13:25:50;5.22;;;1.05;;
69081;SDS011;69029;51.986;5.760;2023-04-25T13:28:15;3.15;;;1.10;;
69081;SDS011;69029;51.986;5.760;2023-04-25T13:30:41;3.47;;;1.05;;
69081;SDS011;69029;51.986;5.760;2023-04-25T13:33:07;4.53;;;0.98;;
69081;SDS011;69029;51.986;5.760;2023-04-25T13:35:33;4.75;;;1.05;;
69081;SDS011;69029;51.986;5.760;2023-04-25T13:38:00;2.40;;;0.63;;
69081;SDS011;69029;51.986;5.760;2023-04-25T13:40:26;3.17;;;0.90;;
69081;SDS011;69029;51.986;5.760;2023-04-25T13:42:52;3.88;;;0.88;;
69081;SDS011;69029;51.986;5.760;2023-04-25T13:45:18;2.85;;;0.70;;
69081;SDS011;69029;51.986;5.760;2023-04-25T13:47:45;2.47;;;0.95;;
69081;SDS011;69029;51.986;5.760;2023-04-25T13:50:11;4.07;;;0.77;;
69081;SDS011;69029;51.986;5.760;2023-04-25T13:52:36;3.10;;;0.80;;
69081;SDS011;69029;51.986;5.760;2023-04-25T13:55:02;4.68;;;0.95;;
69081;SDS011;69029;51.986;5.760;2023-04-25T13:57:30;1.80;;;0.68;;
69081;SDS011;69029;51.986;5.760;2023-04-25T13:59:56;2.85;;;0.90;;
69081;SDS011;69029;51.986;5.760;2023-04-25T14:02:21;1.92;;;0.60;;
69081;SDS011;69029;51.986;5.760;2023-04-25T14:04:48;3.70;;;1.00;;
69081;SDS011;69029;51.986;5.760;2023-04-25T14:07:14;5.55;;;1.20;;
69081;SDS011;69029;51.986;5.760;2023-04-25T14:09:43;4.13;;;0.90;;
69081;SDS011;69029;51.986;5.760;2023-04-25T14:12:09;3.90;;;1.08;;
69081;SDS011;69029;51.986;5.760;2023-04-25T14:14:35;3.95;;;0.98;;
69081;SDS011;69029;51.986;5.760;2023-04-25T14:17:00;4.22;;;0.93;;
69081;SDS011;69029;51.986;5.760;2023-04-25T14:19:26;3.72;;;1.02;;
69081;SDS011;69029;51.986;5.760;2023-04-25T14:21:53;5.53;;;1.00;;
69081;SDS011;69029;51.986;5.760;2023-04-25T14:24:19;4.13;;;1.05;;
69081;SDS011;69029;51.986;5.760;2023-04-25T14:26:45;3.20;;;0.80;;
69081;SDS011;69029;51.986;5.760;2023-04-25T14:29:11;3.97;;;1.00;;
69081;SDS011;69029;51.986;5.760;2023-04-25T14:31:38;3.67;;;0.93;;
69081;SDS011;69029;51.986;5.760;2023-04-25T14:34:05;6.53;;;1.23;;
69081;SDS011;69029;51.986;5.760;2023-04-25T14:36:31;7.45;;;1.05;;
69081;SDS011;69029;51.986;5.760;2023-04-25T14:38:57;6.68;;;1.27;;
69081;SDS011;69029;51.986;5.760;2023-04-25T14:41:23;2.42;;;0.70;;
69081;SDS011;69029;51.986;5.760;2023-04-25T14:43:52;1.73;;;0.80;;
69081;SDS011;69029;51.986;5.760;2023-04-25T14:46:18;2.85;;;0.88;;